createdAt,value
2023-04-18T00:00:56.619Z,7.95
2023-04-18T00:03:24.249Z,7.68
2023-04-18T00:05:52.090Z,7.63
2023-04-18T00:08:19.076Z,7.07
2023-04-18T00:10:46.746Z,7.80
2023-04-18T00:13:13.841Z,6.93
2023-04-18T00:15:43.968Z,7.30
2023-04-18T00:18:11.367Z,7.30
2023-04-18T00:20:39.437Z,7.70
2023-04-18T00:23:07.887Z,7.88
2023-04-18T00:25:34.948Z,7.97
2023-04-18T00:28:02.154Z,7.25
2023-04-18T00:30:29.210Z,7.90
2023-04-18T00:32:56.408Z,8.05
2023-04-18T00:35:23.698Z,8.35
2023-04-18T00:37:51.146Z,8.00
2023-04-18T00:40:18.378Z,8.07
2023-04-18T00:42:45.434Z,8.60
2023-04-18T00:45:12.523Z,8.25
2023-04-18T00:47:39.592Z,7.82
2023-04-18T00:50:07.552Z,7.80
2023-04-18T00:52:36.089Z,8.63
2023-04-18T00:55:05.401Z,8.75
2023-04-18T00:57:32.679Z,8.25
2023-04-18T01:00:10.438Z,8.68
2023-04-18T01:02:39.676Z,8.80
2023-04-18T01:05:08.097Z,8.43
2023-04-18T01:07:37.873Z,8.02
2023-04-18T01:10:05.683Z,9.13
2023-04-18T01:12:32.870Z,9.07
2023-04-18T01:15:00.833Z,8.65
2023-04-18T01:17:28.577Z,8.45
2023-04-18T01:19:56.814Z,8.70
2023-04-18T01:22:24.114Z,8.30
2023-04-18T01:24:51.142Z,8.45
2023-04-18T01:27:18.180Z,7.88
2023-04-18T01:29:45.233Z,9.52
2023-04-18T01:32:12.264Z,8.82
2023-04-18T01:34:39.290Z,9.13
2023-04-18T01:37:06.501Z,8.73
2023-04-18T01:39:33.574Z,9.40
2023-04-18T01:42:02.206Z,8.98
2023-04-18T01:44:29.361Z,9.10
2023-04-18T01:46:56.417Z,8.88
2023-04-18T01:49:23.812Z,7.95
2023-04-18T01:51:50.887Z,8.23
2023-04-18T01:54:17.926Z,9.10
2023-04-18T01:56:44.992Z,9.18
2023-04-18T01:59:12.044Z,8.38
2023-04-18T02:01:39.014Z,9.45
2023-04-18T02:04:06.112Z,9.00
2023-04-18T02:06:34.362Z,8.95
2023-04-18T02:09:01.515Z,8.32
2023-04-18T02:11:28.658Z,9.18
2023-04-18T02:13:55.830Z,8.30
2023-04-18T02:16:22.864Z,10.85
2023-04-18T02:18:52.730Z,9.20
2023-04-18T02:21:19.780Z,9.15
2023-04-18T02:23:46.967Z,8.90
2023-04-18T02:26:13.912Z,8.90
2023-04-18T02:28:40.984Z,8.88
2023-04-18T02:31:14.467Z,9.98
2023-04-18T02:33:47.558Z,8.73
2023-04-18T02:36:14.552Z,9.18
2023-04-18T02:38:41.653Z,9.98
2023-04-18T02:41:09.043Z,9.10
2023-04-18T02:43:36.234Z,9.07
2023-04-18T02:46:03.271Z,9.82
2023-04-18T02:48:30.305Z,10.35
2023-04-18T02:51:06.078Z,9.45
2023-04-18T02:53:33.894Z,9.48
2023-04-18T02:56:01.344Z,8.45
2023-04-18T02:58:28.578Z,9.45
2023-04-18T03:00:56.706Z,9.73
2023-04-18T03:03:23.829Z,9.35
2023-04-18T03:05:50.953Z,9.23
2023-04-18T03:08:17.953Z,9.63
2023-04-18T03:10:45.087Z,9.35
2023-04-18T03:13:12.251Z,9.63
2023-04-18T03:15:39.342Z,8.98
2023-04-18T03:18:06.449Z,9.38
2023-04-18T03:20:33.518Z,9.25
2023-04-18T03:23:00.959Z,9.35
2023-04-18T03:25:27.944Z,9.32
2023-04-18T03:27:54.964Z,9.25
2023-04-18T03:30:22.038Z,9.45
2023-04-18T03:32:49.344Z,9.57
2023-04-18T03:35:16.478Z,9.48
2023-04-18T03:37:43.606Z,9.95
2023-04-18T03:40:11.352Z,9.57
2023-04-18T03:42:38.524Z,9.68
2023-04-18T03:45:06.018Z,9.40
2023-04-18T03:47:33.708Z,9.02
2023-04-18T03:50:00.765Z,10.05
2023-04-18T03:52:29.718Z,10.55
2023-04-18T03:54:56.943Z,10.23
2023-04-18T03:57:24.068Z,9.82
2023-04-18T03:59:52.072Z,10.20
2023-04-18T04:02:19.283Z,10.07
2023-04-18T04:04:47.168Z,10.25
2023-04-18T04:07:14.339Z,10.48
2023-04-18T04:09:41.371Z,10.45
2023-04-18T04:12:08.743Z,9.90
2023-04-18T04:14:35.976Z,10.80
2023-04-18T04:17:03.053Z,10.88
2023-04-18T04:19:48.720Z,10.63
2023-04-18T04:22:16.412Z,10.43
2023-04-18T04:24:43.789Z,10.63
2023-04-18T04:27:12.718Z,10.77
2023-04-18T04:29:40.088Z,9.60
2023-04-18T04:32:08.266Z,10.82
2023-04-18T04:34:36.980Z,10.73
2023-04-18T04:37:04.038Z,11.77
2023-04-18T04:39:31.019Z,12.65
2023-04-18T04:41:58.006Z,11.70
2023-04-18T04:44:26.265Z,11.10
2023-04-18T04:46:54.524Z,12.02
2023-04-18T04:49:22.097Z,11.75
2023-04-18T04:51:49.399Z,11.80
2023-04-18T04:54:16.639Z,11.95
2023-04-18T04:56:43.950Z,11.70
2023-04-18T04:59:11.255Z,11.55
2023-04-18T05:01:38.337Z,11.77
2023-04-18T05:04:05.944Z,10.93
2023-04-18T05:06:33.105Z,11.07
2023-04-18T05:09:01.220Z,11.52
2023-04-18T05:11:28.398Z,10.43
2023-04-18T05:13:55.472Z,10.85
2023-04-18T05:16:22.605Z,10.77
2023-04-18T05:18:49.603Z,11.98
2023-04-18T05:21:19.651Z,11.07
2023-04-18T05:23:46.929Z,11.80
2023-04-18T05:26:13.995Z,12.27
2023-04-18T05:28:41.549Z,11.00
2023-04-18T05:31:08.924Z,11.13
2023-04-18T05:33:36.025Z,11.30
2023-04-18T05:36:03.390Z,11.50
2023-04-18T05:38:30.640Z,12.25
2023-04-18T05:41:00.462Z,11.80
2023-04-18T05:43:27.578Z,11.38
2023-04-18T05:45:57.233Z,11.43
2023-04-18T05:48:25.368Z,10.50
2023-04-18T05:50:52.578Z,11.00
2023-04-18T05:53:19.633Z,10.25
2023-04-18T05:55:48.766Z,11.23
2023-04-18T05:58:16.219Z,10.77
2023-04-18T06:00:43.627Z,10.32
2023-04-18T06:03:11.350Z,10.52
2023-04-18T06:05:41.141Z,10.73
2023-04-18T06:08:08.206Z,10.68
2023-04-18T06:10:36.994Z,11.95
2023-04-18T06:13:06.201Z,11.57
2023-04-18T06:15:34.460Z,11.75
2023-04-18T06:18:01.572Z,11.65
2023-04-18T06:20:28.723Z,11.77
2023-04-18T06:22:55.972Z,12.20
2023-04-18T06:25:23.020Z,11.80
2023-04-18T06:27:50.059Z,12.23
2023-04-18T06:30:17.137Z,12.00
2023-04-18T06:32:45.388Z,11.55
2023-04-18T06:35:12.461Z,12.05
2023-04-18T06:37:44.061Z,11.65
2023-04-18T06:40:12.227Z,12.95
2023-04-18T06:42:39.656Z,12.25
2023-04-18T06:45:07.378Z,12.57
2023-04-18T06:47:34.545Z,11.85
2023-04-18T06:50:01.713Z,12.25
2023-04-18T06:52:29.785Z,11.50
2023-04-18T06:54:56.840Z,11.07
2023-04-18T06:57:23.932Z,11.40
2023-04-18T06:59:50.987Z,10.75
2023-04-18T07:02:18.197Z,10.80
2023-04-18T07:04:45.276Z,11.38
2023-04-18T07:07:12.333Z,10.48
2023-04-18T07:09:39.298Z,10.73
2023-04-18T07:12:06.552Z,10.52
2023-04-18T07:14:34.291Z,9.95
2023-04-18T07:17:02.150Z,9.35
2023-04-18T07:19:29.409Z,10.27
2023-04-18T07:21:56.513Z,10.68
2023-04-18T07:24:24.015Z,10.88
2023-04-18T07:26:54.896Z,10.20
2023-04-18T07:29:22.497Z,11.27
2023-04-18T07:31:49.950Z,11.38
2023-04-18T07:34:17.605Z,10.82
2023-04-18T07:36:44.730Z,11.88
2023-04-18T07:39:11.747Z,11.50
2023-04-18T07:41:38.768Z,10.88
2023-04-18T07:44:06.165Z,10.10
2023-04-18T07:46:34.079Z,10.73
2023-04-18T07:49:02.477Z,10.65
2023-04-18T07:51:32.416Z,11.18
2023-04-18T07:53:59.750Z,8.95
2023-04-18T07:56:27.931Z,10.27
2023-04-18T07:58:54.971Z,10.32
2023-04-18T08:01:24.383Z,10.27
2023-04-18T08:03:53.492Z,9.55
2023-04-18T08:06:21.634Z,9.55
2023-04-18T08:08:48.753Z,9.25
2023-04-18T08:11:15.998Z,9.45
2023-04-18T08:13:43.075Z,9.38
2023-04-18T08:16:10.180Z,8.95
2023-04-18T08:18:37.268Z,8.43
2023-04-18T08:21:04.662Z,8.60
2023-04-18T08:23:31.710Z,8.63
2023-04-18T08:25:58.755Z,9.20
2023-04-18T08:28:25.857Z,8.32
2023-04-18T08:30:55.014Z,8.68
2023-04-18T08:33:26.504Z,8.93
2023-04-18T08:35:53.661Z,8.95
2023-04-18T08:38:20.837Z,9.65
2023-04-18T08:40:48.369Z,9.02
2023-04-18T08:43:15.889Z,8.55
2023-04-18T08:45:44.472Z,8.88
2023-04-18T08:48:16.408Z,9.10
2023-04-18T08:50:44.888Z,8.77
2023-04-18T08:53:12.146Z,9.02
2023-04-18T08:55:40.609Z,9.93
2023-04-18T08:58:08.103Z,8.95
2023-04-18T09:00:35.370Z,9.57
2023-04-18T09:03:03.153Z,9.32
2023-04-18T09:05:30.432Z,9.70
2023-04-18T09:07:57.646Z,9.88
2023-04-18T09:10:29.062Z,9.20
2023-04-18T09:12:57.794Z,9.60
2023-04-18T09:15:29.463Z,9.27
2023-04-18T09:17:58.923Z,9.63
2023-04-18T09:20:47.778Z,9.38
2023-04-18T09:23:24.750Z,9.45
2023-04-18T09:25:52.503Z,9.35
2023-04-18T09:28:29.970Z,9.25
2023-04-18T09:30:59.202Z,10.18
2023-04-18T09:33:33.662Z,9.73
2023-04-18T09:36:20.905Z,9.82
2023-04-18T09:38:49.289Z,9.00
2023-04-18T09:41:19.942Z,8.60
2023-04-18T09:43:49.008Z,8.73
2023-04-18T09:46:17.851Z,8.68
2023-04-18T09:48:45.047Z,9.20
2023-04-18T09:51:15.820Z,9.30
2023-04-18T09:53:45.093Z,9.90
2023-04-18T09:56:32.115Z,9.93
2023-04-18T09:59:08.936Z,9.38
2023-04-18T10:01:36.691Z,9.43
2023-04-18T10:04:06.947Z,9.93
2023-04-18T10:06:39.921Z,10.13
2023-04-18T10:09:09.481Z,10.40
2023-04-18T10:11:36.942Z,9.57
2023-04-18T10:14:09.862Z,10.20
2023-04-18T10:16:38.008Z,9.88
2023-04-18T10:19:26.157Z,9.88
2023-04-18T10:21:54.952Z,9.07
2023-04-18T10:24:50.035Z,9.10
2023-04-18T10:27:17.907Z,10.38
2023-04-18T10:29:51.849Z,10.13
2023-04-18T10:32:22.254Z,10.45
2023-04-18T10:34:54.384Z,9.75
2023-04-18T10:37:21.524Z,10.07
2023-04-18T10:39:49.801Z,9.65
2023-04-18T10:42:17.030Z,11.18
2023-04-18T10:44:44.279Z,10.63
2023-04-18T10:47:17.145Z,9.95
2023-04-18T10:49:54.643Z,9.88
2023-04-18T10:52:21.712Z,8.55
2023-04-18T10:54:59.208Z,10.15
2023-04-18T10:57:38.903Z,10.07
2023-04-18T11:00:14.836Z,9.80
2023-04-18T11:03:00.251Z,9.82
2023-04-18T11:05:29.427Z,9.63
2023-04-18T11:07:56.450Z,10.25
2023-04-18T11:10:26.579Z,9.18
2023-04-18T11:12:56.633Z,9.57
2023-04-18T11:15:25.461Z,9.90
2023-04-18T11:18:02.653Z,9.70
2023-04-18T11:20:37.635Z,10.05
2023-04-18T11:23:04.690Z,9.00
2023-04-18T11:25:52.429Z,9.13
2023-04-18T11:28:22.092Z,9.43
2023-04-18T11:30:50.105Z,9.60
2023-04-18T11:33:17.300Z,9.40
2023-04-18T11:35:45.944Z,9.93
2023-04-18T11:38:34.883Z,9.90
2023-04-18T11:41:23.399Z,9.82
2023-04-18T11:43:50.560Z,9.73
2023-04-18T11:46:18.116Z,9.48
2023-04-18T11:48:45.714Z,9.38
2023-04-18T11:51:32.780Z,9.88
2023-04-18T11:54:00.189Z,10.38
2023-04-18T11:56:27.271Z,10.70
2023-04-18T11:58:54.294Z,9.20
2023-04-18T12:01:22.351Z,9.98
2023-04-18T12:04:06.792Z,9.50
2023-04-18T12:06:51.316Z,9.63
2023-04-18T12:09:19.711Z,9.90
2023-04-18T12:12:03.779Z,10.07
2023-04-18T12:14:31.236Z,9.82
2023-04-18T12:17:16.926Z,9.20
2023-04-18T12:19:49.698Z,8.57
2023-04-18T12:22:16.994Z,8.95
2023-04-18T12:24:44.134Z,9.30
2023-04-18T12:27:12.233Z,8.73
2023-04-18T12:29:39.806Z,9.43
2023-04-18T12:32:06.844Z,9.23
2023-04-18T12:34:33.936Z,9.15
2023-04-18T12:37:01.120Z,9.52
2023-04-18T12:39:28.131Z,9.52
2023-04-18T12:41:55.227Z,9.75
2023-04-18T12:44:22.943Z,8.90
2023-04-18T12:47:08.685Z,8.60
2023-04-18T12:49:35.898Z,8.70
2023-04-18T12:52:03.202Z,8.85
2023-04-18T12:54:30.437Z,10.00
2023-04-18T12:57:17.570Z,9.48
2023-04-18T13:00:06.515Z,9.40
2023-04-18T13:02:37.524Z,9.23
2023-04-18T13:05:09.438Z,9.32
2023-04-18T13:07:40.628Z,9.15
2023-04-18T13:10:12.827Z,9.68
2023-04-18T13:12:59.457Z,8.27
2023-04-18T13:15:45.588Z,8.73
2023-04-18T13:18:12.633Z,8.75
2023-04-18T13:21:17.074Z,8.95
2023-04-18T13:23:44.166Z,9.43
2023-04-18T13:26:29.679Z,9.10
2023-04-18T13:28:56.735Z,9.38
2023-04-18T13:31:42.785Z,9.27
2023-04-18T13:34:28.886Z,9.02
2023-04-18T13:37:14.901Z,9.02
2023-04-18T13:39:42.269Z,9.18
2023-04-18T13:42:09.948Z,8.70
2023-04-18T13:44:55.814Z,8.88
2023-04-18T13:47:22.836Z,8.13
2023-04-18T13:50:09.100Z,8.43
2023-04-18T13:52:55.412Z,8.30
2023-04-18T13:55:41.509Z,8.75
2023-04-18T13:58:09.838Z,8.25
2023-04-18T14:00:37.076Z,9.15
2023-04-18T14:03:05.115Z,9.27
2023-04-18T14:05:47.321Z,8.18
2023-04-18T14:08:14.834Z,9.07
2023-04-18T14:11:00.471Z,8.35
2023-04-18T14:13:27.603Z,8.63
2023-04-18T14:15:54.732Z,8.45
2023-04-18T14:18:23.720Z,8.50
2023-04-18T14:20:51.575Z,9.07
2023-04-18T14:23:18.804Z,8.93
2023-04-18T14:25:45.972Z,8.50
2023-04-18T14:28:13.154Z,8.43
2023-04-18T14:31:02.162Z,8.32
2023-04-18T14:33:29.747Z,8.65
2023-04-18T14:35:57.421Z,8.85
2023-04-18T14:38:43.172Z,8.95
2023-04-18T14:41:10.341Z,8.88
2023-04-18T14:43:37.426Z,8.15
2023-04-18T14:46:23.451Z,7.85
2023-04-18T14:48:51.020Z,8.38
2023-04-18T14:51:18.165Z,8.10
2023-04-18T14:53:45.832Z,7.90
2023-04-18T14:56:12.868Z,8.15
2023-04-18T14:58:39.879Z,7.68
2023-04-18T15:01:07.090Z,7.32
2023-04-18T15:03:34.462Z,7.15
2023-04-18T15:06:01.830Z,8.30
2023-04-18T15:08:31.342Z,7.25
2023-04-18T15:10:59.862Z,7.03
2023-04-18T15:13:27.138Z,7.65
2023-04-18T15:15:56.911Z,7.15
2023-04-18T15:18:24.071Z,7.25
2023-04-18T15:20:51.848Z,7.60
2023-04-18T15:23:18.991Z,7.85
2023-04-18T15:25:46.733Z,6.95
2023-04-18T15:28:14.109Z,7.47
2023-04-18T15:30:41.298Z,7.20
2023-04-18T15:33:08.652Z,7.45
2023-04-18T15:35:36.151Z,7.03
2023-04-18T15:38:03.592Z,6.57
2023-04-18T15:40:33.107Z,6.57
2023-04-18T15:43:00.522Z,6.97
2023-04-18T15:45:27.678Z,7.20
2023-04-18T15:47:54.943Z,6.72
2023-04-18T15:50:24.001Z,6.30
2023-04-18T15:52:51.344Z,6.90
2023-04-18T15:55:18.364Z,6.65
2023-04-18T15:57:45.454Z,7.00
2023-04-18T16:00:30.925Z,7.35
2023-04-18T16:02:58.246Z,7.32
2023-04-18T16:05:25.633Z,6.97
2023-04-18T16:07:53.925Z,7.20
2023-04-18T16:10:21.015Z,6.65
2023-04-18T16:12:48.353Z,6.85
2023-04-18T16:15:15.389Z,7.30
2023-04-18T16:17:42.507Z,6.93
2023-04-18T16:20:10.166Z,7.13
2023-04-18T16:22:37.818Z,7.15
2023-04-18T16:25:06.281Z,7.15
2023-04-18T16:27:33.584Z,7.60
2023-04-18T16:30:00.768Z,7.07
2023-04-18T16:32:27.882Z,7.70
2023-04-18T16:34:54.951Z,7.13
2023-04-18T16:37:22.024Z,7.07
2023-04-18T16:39:49.129Z,7.03
2023-04-18T16:42:16.668Z,6.50
2023-04-18T16:44:45.326Z,6.38
2023-04-18T16:47:12.470Z,6.72
2023-04-18T16:49:39.643Z,7.10
2023-04-18T16:52:06.965Z,6.53
2023-04-18T16:54:34.042Z,6.60
2023-04-18T16:57:01.877Z,6.85
2023-04-18T16:59:28.966Z,6.63
2023-04-18T17:01:57.023Z,6.75
2023-04-18T17:04:27.038Z,6.40
2023-04-18T17:06:54.204Z,6.60
2023-04-18T17:09:21.408Z,8.00
2023-04-18T17:11:49.050Z,6.82
2023-04-18T17:14:18.368Z,7.32
2023-04-18T17:16:45.974Z,7.13
2023-04-18T17:19:13.447Z,6.57
2023-04-18T17:21:41.312Z,6.57
2023-04-18T17:24:10.262Z,7.03
2023-04-18T17:26:39.121Z,6.63
2023-04-18T17:29:06.374Z,6.90
2023-04-18T17:31:34.387Z,6.82
2023-04-18T17:34:03.611Z,6.78
2023-04-18T17:36:30.842Z,7.05
2023-04-18T17:39:05.442Z,6.82
2023-04-18T17:41:39.788Z,6.60
2023-04-18T17:44:08.346Z,7.47
2023-04-18T17:46:36.039Z,6.72
2023-04-18T17:49:04.461Z,6.75
2023-04-18T17:51:31.563Z,7.32
2023-04-18T17:53:58.759Z,6.43
2023-04-18T17:56:27.098Z,7.05
2023-04-18T17:58:56.457Z,7.78
2023-04-18T18:01:24.954Z,7.53
2023-04-18T18:03:53.790Z,7.82
2023-04-18T18:06:21.294Z,7.20
2023-04-18T18:08:48.377Z,6.90
2023-04-18T18:11:15.469Z,7.40
2023-04-18T18:13:42.613Z,7.38
2023-04-18T18:16:09.697Z,7.40
2023-04-18T18:18:37.353Z,6.90
2023-04-18T18:21:04.575Z,7.60
2023-04-18T18:23:31.820Z,6.78
2023-04-18T18:25:58.990Z,7.50
2023-04-18T18:28:26.133Z,8.90
2023-04-18T18:30:54.344Z,7.18
2023-04-18T18:33:21.566Z,6.93
2023-04-18T18:35:48.632Z,8.00
2023-04-18T18:38:34.507Z,7.50
2023-04-18T18:41:03.609Z,7.47
2023-04-18T18:43:31.099Z,6.63
2023-04-18T18:45:58.337Z,7.82
2023-04-18T18:48:28.047Z,6.93
2023-04-18T18:50:56.608Z,6.22
2023-04-18T18:53:23.705Z,6.45
2023-04-18T18:55:50.709Z,6.90
2023-04-18T18:58:17.773Z,6.55
2023-04-18T19:00:46.502Z,6.32
2023-04-18T19:03:13.789Z,6.07
2023-04-18T19:05:41.116Z,5.75
2023-04-18T19:08:09.430Z,6.10
2023-04-18T19:10:36.561Z,6.15
2023-04-18T19:13:03.808Z,6.20
2023-04-18T19:15:30.888Z,6.10
2023-04-18T19:17:57.966Z,6.50
2023-04-18T19:20:26.151Z,6.55
2023-04-18T19:22:54.089Z,5.57
2023-04-18T19:25:21.348Z,6.20
2023-04-18T19:27:48.398Z,6.10
2023-04-18T19:30:15.555Z,6.72
2023-04-18T19:32:43.349Z,5.90
2023-04-18T19:35:13.234Z,5.57
2023-04-18T19:37:40.333Z,5.47
2023-04-18T19:40:26.813Z,5.40
2023-04-18T19:42:54.135Z,5.65
2023-04-18T19:45:39.711Z,5.28
2023-04-18T19:48:06.934Z,5.10
2023-04-18T19:50:33.962Z,5.75
2023-04-18T19:53:01.070Z,6.22
2023-04-18T19:55:47.044Z,6.22
2023-04-18T19:58:34.728Z,6.78
2023-04-18T20:01:02.011Z,6.47
2023-04-18T20:03:29.282Z,6.57
2023-04-18T20:05:56.538Z,7.10
2023-04-18T20:08:23.637Z,6.47
2023-04-18T20:10:51.256Z,6.80
2023-04-18T20:13:18.426Z,6.97
2023-04-18T20:16:04.450Z,7.05
2023-04-18T20:18:32.353Z,6.43
2023-04-18T20:21:18.412Z,6.28
2023-04-18T20:23:45.830Z,5.85
2023-04-18T20:26:12.898Z,6.57
2023-04-18T20:29:17.355Z,6.07
2023-04-18T20:32:22.489Z,6.85
2023-04-18T20:35:08.577Z,7.45
2023-04-18T20:37:36.747Z,6.97
2023-04-18T20:40:10.702Z,7.13
2023-04-18T20:42:39.015Z,7.07
2023-04-18T20:45:10.993Z,7.15
2023-04-18T20:47:56.975Z,7.90
2023-04-18T20:50:44.644Z,7.65
2023-04-18T20:53:12.176Z,7.90
2023-04-18T20:55:39.210Z,8.90
2023-04-18T20:58:24.757Z,9.40
2023-04-18T21:00:52.574Z,8.98
2023-04-18T21:03:20.201Z,8.18
2023-04-18T21:05:47.316Z,8.57
2023-04-18T21:08:14.897Z,7.80
2023-04-18T21:10:41.927Z,7.93
2023-04-18T21:13:09.397Z,7.18
2023-04-18T21:15:36.575Z,7.50
2023-04-18T21:18:03.801Z,8.15
2023-04-18T21:20:31.095Z,8.02
2023-04-18T21:22:58.180Z,7.78
2023-04-18T21:25:44.337Z,8.65
2023-04-18T21:28:12.072Z,6.47
2023-04-18T21:30:39.170Z,7.25
2023-04-18T21:33:06.429Z,6.07
2023-04-18T21:35:33.474Z,6.25
2023-04-18T21:38:00.586Z,6.50
2023-04-18T21:40:30.744Z,5.82
2023-04-18T21:42:57.847Z,6.60
2023-04-18T21:45:25.134Z,6.05
2023-04-18T21:47:52.887Z,6.00
2023-04-18T21:50:38.686Z,6.05
2023-04-18T21:53:06.011Z,6.80
2023-04-18T21:55:32.997Z,6.40
2023-04-18T21:58:18.992Z,7.03
2023-04-18T22:00:46.074Z,7.28
2023-04-18T22:03:13.398Z,7.80
2023-04-18T22:05:40.892Z,6.57
2023-04-18T22:08:07.952Z,7.30
2023-04-18T22:10:35.334Z,6.68
2023-04-18T22:13:04.728Z,7.07
2023-04-18T22:15:31.928Z,7.50
2023-04-18T22:17:59.316Z,7.60
2023-04-18T22:20:46.933Z,7.82
2023-04-18T22:23:14.299Z,7.82
2023-04-18T22:25:41.321Z,8.00
2023-04-18T22:28:26.543Z,7.45
2023-04-18T22:30:53.649Z,7.80
2023-04-18T22:33:20.769Z,8.10
2023-04-18T22:36:07.120Z,8.02
2023-04-18T22:38:52.762Z,7.90
2023-04-18T22:41:20.624Z,7.63
2023-04-18T22:43:47.729Z,7.65
2023-04-18T22:46:15.122Z,7.72
2023-04-18T22:48:42.123Z,7.45
2023-04-18T22:51:09.213Z,7.75
2023-04-18T22:53:36.213Z,7.88
2023-04-18T22:56:03.225Z,7.15
2023-04-18T22:58:31.485Z,7.50
2023-04-18T23:00:59.926Z,7.60
2023-04-18T23:03:27.174Z,7.05
2023-04-18T23:05:54.327Z,6.93
2023-04-18T23:08:22.693Z,6.82
2023-04-18T23:10:49.898Z,7.75
2023-04-18T23:13:16.988Z,6.60
2023-04-18T23:15:44.024Z,6.93
2023-04-18T23:18:11.099Z,7.00
2023-04-18T23:20:38.392Z,7.13
2023-04-18T23:23:05.890Z,6.60
2023-04-18T23:25:35.816Z,6.90
2023-04-18T23:28:02.869Z,6.68
2023-04-18T23:30:29.929Z,7.53
2023-04-18T23:32:57.044Z,7.60
2023-04-18T23:35:24.571Z,7.22
2023-04-18T23:37:51.605Z,7.45
2023-04-18T23:40:18.686Z,7.35
2023-04-18T23:42:47.381Z,9.95
2023-04-18T23:45:14.455Z,7.10
2023-04-18T23:47:41.639Z,7.25
2023-04-18T23:50:09.551Z,7.25
2023-04-18T23:52:38.404Z,7.60
2023-04-18T23:55:05.974Z,7.35
2023-04-18T23:57:33.103Z,7.90
